^^
Saratoga-Weather Station Historical Data
Daily Summary for May 21, 2022 Units:  English    Metric   Both
Daily Weekly Monthly Yearly Custom
  High: Low: Average:
Temperature: 71.2 °F 51.3 °F 61.2 °F
Dew Point: 53.6 °F 48.4 °F 50.7 °F
Humidity: 91% 48% 71%
Wind Speed: 13mph 0mph 3.3mph
Wind Gust: 13mph - -
Wind- - West
Pressure: 30.2 in 30.1 in -
Precipitation: 0 in    
Historical Graphs
 
 
Tabular Data for May 21, 2022
Time Temperature Dew Point Pressure Wind Wind Speed Wind Gust Humidity Rainfall Rate (Hourly) solar
00:04 56.8 °F 52.3 °F 30.2 in West 2 mph 6 mph 85% 0 in 0 W/m2
00:09 56.7 °F 52.2 °F 30.2 in West 2 mph 8 mph 85% 0 in 0 W/m2
00:14 56.5 °F 52.3 °F 30.2 in West 6.9 mph 7 mph 86% 0 in 0 W/m2
00:19 56.5 °F 52.3 °F 30.2 in West 2 mph 5 mph 86% 0 in 0 W/m2
00:24 56.3 °F 52.2 °F 30.2 in WNW 4 mph 6 mph 86% 0 in 0 W/m2
00:29 56.1 °F 52.3 °F 30.2 in WSW 4.9 mph 5 mph 87% 0 in 0 W/m2
00:34 55.9 °F 52.2 °F 30.2 in West 4 mph 8 mph 87% 0 in 0 W/m2
00:39 55.9 °F 52.2 °F 30.2 in West 6 mph 7 mph 87% 0 in 0 W/m2
00:44 55.8 °F 52 °F 30.2 in WSW 2.9 mph 8 mph 87% 0 in 0 W/m2
00:49 55.8 °F 52 °F 30.2 in West 4 mph 9 mph 87% 0 in 0 W/m2
00:54 55.9 °F 52.2 °F 30.2 in West 4 mph 8 mph 87% 0 in 0 W/m2
00:59 55.9 °F 52.2 °F 30.2 in SW 2.9 mph 9 mph 87% 0 in 0 W/m2
01:04 55.8 °F 52 °F 30.2 in WSW 4.9 mph 7 mph 87% 0 in 0 W/m2
01:09 55.6 °F 51.8 °F 30.2 in WSW 2.9 mph 5 mph 87% 0 in 0 W/m2
01:14 55.2 °F 51.4 °F 30.2 in WSW 2.9 mph 8 mph 87% 0 in 0 W/m2
01:19 55 °F 51.3 °F 30.2 in West 2 mph 3 mph 87% 0 in 0 W/m2
01:24 54.9 °F 51.1 °F 30.2 in West 0.9 mph 6 mph 87% 0 in 0 W/m2
01:29 54.7 °F 51.3 °F 30.2 in SW 2.9 mph 6 mph 88% 0 in 0 W/m2
01:34 54.3 °F 50.9 °F 30.2 in West 2 mph 8 mph 88% 0 in 0 W/m2
01:39 54.1 °F 50.7 °F 30.2 in West 2.9 mph 7 mph 88% 0 in 0 W/m2
01:44 54 °F 50.7 °F 30.2 in WSW 4 mph 6 mph 89% 0 in 0 W/m2
01:49 54 °F 50.7 °F 30.2 in West 2.9 mph 7 mph 89% 0 in 0 W/m2
01:54 53.8 °F 50.5 °F 30.2 in West 4 mph 6 mph 89% 0 in 0 W/m2
01:59 53.6 °F 50.4 °F 30.2 in WSW 2.9 mph 4 mph 89% 0 in 0 W/m2
02:04 53.4 °F 50.2 °F 30.2 in WSW 2.9 mph 6 mph 89% 0 in 0 W/m2
02:09 53.2 °F 50.4 °F 30.2 in WSW 2 mph 4 mph 90% 0 in 0 W/m2
02:14 53.2 °F 50.4 °F 30.2 in WNW 2 mph 5 mph 90% 0 in 0 W/m2
02:19 53.1 °F 50.2 °F 30.2 in West 2.9 mph 8 mph 90% 0 in 0 W/m2
02:24 53.1 °F 50.2 °F 30.2 in WNW 2 mph 6 mph 90% 0 in 0 W/m2
02:29 52.9 °F 50 °F 30.2 in West 4 mph 8 mph 90% 0 in 0 W/m2
02:34 52.9 °F 50 °F 30.2 in WSW 2.9 mph 8 mph 90% 0 in 0 W/m2
02:39 52.7 °F 49.8 °F 30.2 in WNW 4 mph 7 mph 90% 0 in 0 W/m2
02:44 52.5 °F 49.6 °F 30.2 in SW 2.9 mph 12 mph 90% 0 in 0 W/m2
02:49 52.5 °F 49.6 °F 30.2 in WNW 2.9 mph 6 mph 90% 0 in 0 W/m2
02:54 52.5 °F 49.6 °F 30.2 in NW 8.9 mph 12 mph 90% 0 in 0 W/m2
02:59 52.3 °F 49.5 °F 30.2 in West 2.9 mph 8 mph 90% 0 in 0 W/m2
03:04 52.3 °F 49.5 °F 30.2 in WNW 4 mph 10 mph 90% 0 in 0 W/m2
03:09 52.3 °F 49.5 °F 30.2 in West 4 mph 7 mph 90% 0 in 0 W/m2
03:14 52.2 °F 49.3 °F 30.2 in West 4 mph 10 mph 90% 0 in 0 W/m2
03:19 52.2 °F 49.3 °F 30.2 in WNW 4 mph 6 mph 90% 0 in 0 W/m2
03:24 52.2 °F 49.3 °F 30.2 in West 6 mph 7 mph 90% 0 in 0 W/m2
03:29 52.2 °F 49.3 °F 30.2 in West 4 mph 13 mph 90% 0 in 0 W/m2
03:34 52.2 °F 49.3 °F 30.2 in West 6 mph 8 mph 90% 0 in 0 W/m2
03:39 52.2 °F 49.3 °F 30.2 in WSW 4.9 mph 8 mph 90% 0 in 0 W/m2
03:44 52 °F 49.1 °F 30.2 in WNW 2.9 mph 8 mph 90% 0 in 0 W/m2
03:49 52 °F 49.5 °F 30.2 in WNW 2.9 mph 8 mph 91% 0 in 0 W/m2
03:54 52 °F 49.5 °F 30.2 in WSW 4 mph 8 mph 91% 0 in 0 W/m2
03:59 52 °F 49.5 °F 30.2 in WNW 4 mph 8 mph 91% 0 in 0 W/m2
04:04 52 °F 49.5 °F 30.2 in West 2.9 mph 8 mph 91% 0 in 0 W/m2
04:09 52 °F 49.5 °F 30.2 in NW 4.9 mph 8 mph 91% 0 in 0 W/m2
04:14 51.8 °F 49.3 °F 30.2 in WNW 2.9 mph 7 mph 91% 0 in 0 W/m2
04:19 51.8 °F 49.3 °F 30.2 in WNW 2 mph 4 mph 91% 0 in 0 W/m2
04:24 51.6 °F 49.1 °F 30.2 in WNW 2 mph 6 mph 91% 0 in 0 W/m2
04:29 51.4 °F 48.9 °F 30.2 in West 2.9 mph 3 mph 91% 0 in 0 W/m2
04:34 51.4 °F 48.9 °F 30.2 in WNW 2 mph 3 mph 91% 0 in 0 W/m2
04:39 51.4 °F 48.9 °F 30.2 in West 2.9 mph 4 mph 91% 0 in 0 W/m2
04:44 51.4 °F 48.6 °F 30.2 in NW 4.9 mph 7 mph 90% 0 in 0 W/m2
04:49 51.4 °F 48.6 °F 30.2 in WNW 2.9 mph 4 mph 90% 0 in 0 W/m2
04:54 51.4 °F 48.6 °F 30.2 in WNW 2.9 mph 7 mph 90% 0 in 0 W/m2
04:59 51.6 °F 48.7 °F 30.2 in West 2.9 mph 7 mph 90% 0 in 0 W/m2
05:04 51.6 °F 48.7 °F 30.2 in WNW 2.9 mph 6 mph 90% 0 in 0 W/m2
05:09 51.6 °F 48.6 °F 30.2 in WSW 4.9 mph 6 mph 89% 0 in 0 W/m2
05:14 51.6 °F 48.6 °F 30.2 in NW 4 mph 8 mph 89% 0 in 0 W/m2
05:19 51.6 °F 48.6 °F 30.2 in WSW 4 mph 7 mph 89% 0 in 0 W/m2
05:24 51.6 °F 48.6 °F 30.2 in WNW 4.9 mph 8 mph 89% 0 in 0 W/m2
05:29 51.6 °F 48.6 °F 30.2 in West 6 mph 7 mph 89% 0 in 0 W/m2
05:34 51.6 °F 48.6 °F 30.2 in SW 4.9 mph 8 mph 89% 0 in 0 W/m2
05:39 51.6 °F 48.6 °F 30.2 in West 6 mph 8 mph 89% 0 in 0 W/m2
05:44 51.6 °F 48.6 °F 30.2 in West 4 mph 8 mph 89% 0 in 0 W/m2
05:49 51.6 °F 48.6 °F 30.2 in WNW 2.9 mph 6 mph 89% 0 in 7 W/m2
05:54 51.6 °F 48.6 °F 30.2 in WNW 8.9 mph 10 mph 89% 0 in 11 W/m2
05:59 51.6 °F 48.6 °F 30.2 in WNW 2.9 mph 5 mph 89% 0 in 14 W/m2
06:04 51.4 °F 48.4 °F 30.2 in WNW 4 mph 7 mph 89% 0 in 16 W/m2
06:09 51.4 °F 48.6 °F 30.2 in WNW 4 mph 5 mph 90% 0 in 19 W/m2
06:14 51.3 °F 48.4 °F 30.2 in WNW 4 mph 7 mph 90% 0 in 19 W/m2
06:19 51.3 °F 48.4 °F 30.2 in WSW 4 mph 7 mph 90% 0 in 21 W/m2
06:24 51.3 °F 48.4 °F 30.2 in WSW 2.9 mph 9 mph 90% 0 in 23 W/m2
06:29 51.3 °F 48.4 °F 30.2 in NW 4.9 mph 5 mph 90% 0 in 30 W/m2
06:34 51.4 °F 48.6 °F 30.2 in WNW 4 mph 6 mph 90% 0 in 35 W/m2
06:39 51.4 °F 48.6 °F 30.2 in West 2 mph 6 mph 90% 0 in 39 W/m2
06:44 51.4 °F 48.9 °F 30.2 in NW 2 mph 7 mph 91% 0 in 39 W/m2
06:49 51.4 °F 48.9 °F 30.2 in West 2 mph 4 mph 91% 0 in 42 W/m2
06:54 51.4 °F 48.9 °F 30.2 in WNW 6 mph 7 mph 91% 0 in 56 W/m2
06:59 51.6 °F 49.1 °F 30.2 in West 2 mph 5 mph 91% 0 in 54 W/m2
07:04 52 °F 49.5 °F 30.2 in WNW 2 mph 8 mph 91% 0 in 46 W/m2
07:09 52.2 °F 49.3 °F 30.2 in North 2.9 mph 4 mph 90% 0 in 47 W/m2
07:14 52.3 °F 49.5 °F 30.2 in WSW 0.9 mph 6 mph 90% 0 in 128 W/m2
07:19 52.5 °F 49.6 °F 30.2 in WNW 2.9 mph 8 mph 90% 0 in 134 W/m2
07:24 52.9 °F 50 °F 30.2 in SW 2.9 mph 4 mph 90% 0 in 83 W/m2
07:29 53.1 °F 49.8 °F 30.2 in SW 4.9 mph 7 mph 89% 0 in 149 W/m2
07:34 53.4 °F 50.2 °F 30.2 in West 4 mph 6 mph 89% 0 in 186 W/m2
07:39 53.8 °F 50.4 °F 30.2 in West 2 mph 4 mph 88% 0 in 148 W/m2
07:45 54 °F 50.2 °F 30.2 in WSW 2 mph 4 mph 87% 0 in 243 W/m2
07:50 54.3 °F 50.5 °F 30.2 in Calm   4 mph 87% 0 in 209 W/m2
07:55 54.7 °F 50.9 °F 30.2 in WNW 8.1 mph 8 mph 87% 0 in 262 W/m2
08:00 55 °F 50.9 °F 30.2 in WNW 2.9 mph 6 mph 86% 0 in 264 W/m2
08:05 55.4 °F 51.3 °F 30.2 in NNW 2 mph 8 mph 86% 0 in 246 W/m2
08:10 55.8 °F 51.3 °F 30.2 in WSW 2 mph 4 mph 85% 0 in 158 W/m2
08:15 56.1 °F 51.4 °F 30.2 in WNW 0.9 mph 6 mph 84% 0 in 100 W/m2
08:20 56.8 °F 52 °F 30.2 in NNW 0.9 mph 2 mph 84% 0 in 58 W/m2
08:25 57.2 °F 51.8 °F 30.2 in West 4 mph 6 mph 82% 0 in 58 W/m2
08:30 57.4 °F 52 °F 30.2 in WNW 0.9 mph 4 mph 82% 0 in 56 W/m2
08:35 57.4 °F 52 °F 30.2 in NW 0.9 mph 4 mph 82% 0 in 54 W/m2
08:40 57.6 °F 52.2 °F 30.2 in WSW 0.9 mph 9 mph 82% 0 in 56 W/m2
08:45 57.7 °F 52 °F 30.2 in NW 2 mph 3 mph 81% 0 in 54 W/m2
08:50 57.9 °F 51.8 °F 30.2 in NW 2.9 mph 7 mph 80% 0 in 56 W/m2
08:55 57.9 °F 51.8 °F 30.2 in NW 4 mph 9 mph 80% 0 in 54 W/m2
09:00 57.7 °F 51.6 °F 30.2 in West 6 mph 10 mph 80% 0 in 56 W/m2
09:05 57.7 °F 52.3 °F 30.2 in West 2.9 mph 9 mph 82% 0 in 84 W/m2
09:10 57.9 °F 52.2 °F 30.2 in WNW 0.9 mph 6 mph 81% 0 in 77 W/m2
09:15 58.5 °F 52.7 °F 30.2 in WNW 4 mph 9 mph 81% 0 in 63 W/m2
09:20 58.6 °F 52.5 °F 30.2 in West 4 mph 7 mph 80% 0 in 62 W/m2
09:25 58.6 °F 52.5 °F 30.2 in WNW 2.9 mph 8 mph 80% 0 in 91 W/m2
09:30 58.8 °F 52.7 °F 30.2 in SW 2 mph 7 mph 80% 0 in 148 W/m2
09:35 59.2 °F 52.7 °F 30.2 in NW 4.9 mph 9 mph 79% 0 in 141 W/m2
09:40 59.2 °F 52.7 °F 30.2 in SSW 6 mph 8 mph 79% 0 in 113 W/m2
09:45 59.2 °F 53.1 °F 30.2 in NW 2.9 mph 8 mph 80% 0 in 116 W/m2
09:50 59.4 °F 52.9 °F 30.2 in WNW 2 mph 8 mph 79% 0 in 123 W/m2
09:55 59.5 °F 52.7 °F 30.2 in NW 2.9 mph 7 mph 78% 0 in 146 W/m2
10:00 60.1 °F 53.2 °F 30.2 in WNW 0.9 mph 7 mph 78% 0 in 156 W/m2
10:05 60.6 °F 53.1 °F 30.2 in WNW 4.9 mph 9 mph 76% 0 in 156 W/m2
10:10 60.6 °F 52.7 °F 30.2 in WSW 2.9 mph 9 mph 75% 0 in 213 W/m2
10:15 60.8 °F 53.2 °F 30.2 in WNW 6 mph 10 mph 76% 0 in 392 W/m2
10:20 61.2 °F 53.2 °F 30.2 in WNW 4 mph 8 mph 75% 0 in 735 W/m2
10:25 61.5 °F 53.6 °F 30.2 in WNW 2.9 mph 3 mph 75% 0 in 587 W/m2
10:30 61.3 °F 52.7 °F 30.2 in WSW 2.9 mph 6 mph 73% 0 in 195 W/m2
10:35 61.3 °F 53.1 °F 30.2 in WSW 2.9 mph 6 mph 74% 0 in 513 W/m2
10:40 61.5 °F 53.2 °F 30.2 in SW 4 mph 7 mph 74% 0 in 513 W/m2
10:45 62.1 °F 52.9 °F 30.2 in WNW 4 mph 7 mph 72% 0 in 765 W/m2
10:50 62.1 °F 52.5 °F 30.2 in WNW 4.9 mph 9 mph 71% 0 in 715 W/m2
10:55 62.6 °F 52.7 °F 30.2 in WNW 8.9 mph 9 mph 70% 0 in 717 W/m2
11:00 62.8 °F 52.5 °F 30.2 in West 2.9 mph 5 mph 69% 0 in 701 W/m2
11:05 63 °F 52.7 °F 30.2 in West 0.9 mph 3 mph 69% 0 in 788 W/m2
11:10 63.5 °F 53.1 °F 30.2 in NW 2 mph 5 mph 69% 0 in 793 W/m2
11:15 63.3 °F 52.2 °F 30.2 in West 6 mph 8 mph 67% 0 in 146 W/m2
11:20 63.1 °F 52 °F 30.2 in North 4 mph 6 mph 67% 0 in 828 W/m2
11:25 63.5 °F 51.4 °F 30.2 in SW 6 mph 8 mph 65% 0 in 798 W/m2
11:30 63.3 °F 50.9 °F 30.2 in NNW 2.9 mph 4 mph 64% 0 in 805 W/m2
11:35 63.7 °F 52.2 °F 30.2 in WNW 4 mph 9 mph 66% 0 in 909 W/m2
11:40 64 °F 52.5 °F 30.2 in West 0.9 mph 3 mph 66% 0 in 835 W/m2
11:45 64.4 °F 51.6 °F 30.2 in WNW 2.9 mph 10 mph 63% 0 in 819 W/m2
11:50 64.6 °F 52.2 °F 30.2 in WNW 2.9 mph 8 mph 64% 0 in 236 W/m2
11:55 64.4 °F 51.6 °F 30.2 in WSW 2.9 mph 11 mph 63% 0 in 209 W/m2
12:00 64.6 °F 52.2 °F 30.2 in West 6.9 mph 7 mph 64% 0 in 916 W/m2
12:05 64.8 °F 51.1 °F 30.2 in WSW 4.9 mph 11 mph 61% 0 in 599 W/m2
12:10 64.6 °F 52.2 °F 30.2 in WNW 0.9 mph 5 mph 64% 0 in 181 W/m2
12:15 64.8 °F 52.3 °F 30.2 in WSW 8.1 mph 9 mph 64% 0 in 854 W/m2
12:20 65.1 °F 52.2 °F 30.2 in NNW 2.9 mph 8 mph 63% 0 in 944 W/m2
12:25 65.1 °F 50.4 °F 30.2 in NW 2.9 mph 8 mph 59% 0 in 849 W/m2
12:30 65.1 °F 50.9 °F 30.2 in West 6.9 mph 12 mph 60% 0 in 984 W/m2
12:35 65.3 °F 51.1 °F 30.2 in West 2 mph 5 mph 60% 0 in 1056 W/m2
12:40 65.8 °F 52 °F 30.2 in West 4 mph 7 mph 61% 0 in 232 W/m2
12:45 66 °F 51.3 °F 30.2 in SW 4.9 mph 10 mph 59% 0 in 944 W/m2
12:50 66 °F 50.9 °F 30.2 in WNW 4.9 mph 9 mph 58% 0 in 958 W/m2
12:55 66.6 °F 51.3 °F 30.2 in NNW 2.9 mph 4 mph 58% 0 in 946 W/m2
13:00 66.9 °F 51.6 °F 30.2 in WNW 2.9 mph 8 mph 58% 0 in 944 W/m2
13:05 67.3 °F 51.1 °F 30.2 in NW 4.9 mph 12 mph 56% 0 in 944 W/m2
13:10 66.9 °F 51.3 °F 30.2 in NNW 8.1 mph 11 mph 57% 0 in 970 W/m2
13:15 66.7 °F 51.4 °F 30.2 in WNW 4 mph 12 mph 58% 0 in 962 W/m2
13:20 66.9 °F 50.7 °F 30.2 in WNW 2 mph 8 mph 56% 0 in 902 W/m2
13:25 66.9 °F 50.7 °F 30.2 in WSW 2.9 mph 7 mph 56% 0 in 1013 W/m2
13:30 66.9 °F 50.7 °F 30.2 in WNW 2 mph 10 mph 56% 0 in 211 W/m2
13:35 67.1 °F 50.9 °F 30.2 in WSW 8.9 mph 9 mph 56% 0 in 990 W/m2
13:40 67.6 °F 50.9 °F 30.2 in WSW 4.9 mph 12 mph 55% 0 in 807 W/m2
13:45 67.5 °F 50.2 °F 30.2 in WSW 13 mph 13 mph 54% 0 in 976 W/m2
13:50 67.3 °F 50.5 °F 30.2 in WNW 4 mph 11 mph 55% 0 in 926 W/m2
13:55 67.5 °F 50.2 °F 30.2 in WNW 2 mph 8 mph 54% 0 in 965 W/m2
14:00 67.6 °F 50.9 °F 30.2 in West 8.9 mph 12 mph 55% 0 in 956 W/m2
14:05 67.8 °F 50.5 °F 30.2 in WSW 2 mph 10 mph 54% 0 in 953 W/m2
14:10 68 °F 50.2 °F 30.2 in NW 8.1 mph 13 mph 53% 0 in 965 W/m2
14:15 67.8 °F 50.5 °F 30.2 in NW 2.9 mph 7 mph 54% 0 in 875 W/m2
14:20 68.2 °F 50.4 °F 30.2 in WNW 8.9 mph 13 mph 53% 0 in 891 W/m2
14:25 67.8 °F 50.5 °F 30.2 in West 4 mph 9 mph 54% 0 in 911 W/m2
14:30 68.5 °F 50.7 °F 30.2 in West 2.9 mph 12 mph 53% 0 in 944 W/m2
14:35 68.7 °F 50.4 °F 30.2 in West 6 mph 12 mph 52% 0 in 452 W/m2
14:40 68.4 °F 50.5 °F 30.2 in NNW 2.9 mph 9 mph 53% 0 in 396 W/m2
14:45 68.2 °F 49.8 °F 30.2 in West 8.1 mph 10 mph 52% 0 in 297 W/m2
14:50 67.6 °F 50.4 °F 30.2 in West 2.9 mph 6 mph 54% 0 in 302 W/m2
14:55 67.6 °F 50.4 °F 30.2 in West 4 mph 9 mph 54% 0 in 410 W/m2
15:00 67.6 °F 50.9 °F 30.2 in WNW 2.9 mph 6 mph 55% 0 in 817 W/m2
15:05 68.2 °F 50.4 °F 30.2 in West 4 mph 7 mph 53% 0 in 364 W/m2
15:10 68.2 °F 49.8 °F 30.2 in West 4 mph 9 mph 52% 0 in 311 W/m2
15:15 68.2 °F 50.4 °F 30.2 in West 2 mph 8 mph 53% 0 in 480 W/m2
15:20 68 °F 50.7 °F 30.2 in West 2 mph 8 mph 54% 0 in 636 W/m2
15:25 68.5 °F 51.3 °F 30.2 in WNW 10.1 mph 10 mph 54% 0 in 919 W/m2
15:30 69.4 °F 51.6 °F 30.2 in WSW 4 mph 8 mph 53% 0 in 984 W/m2
15:35 69.6 °F 51.3 °F 30.2 in West 2.9 mph 10 mph 52% 0 in 930 W/m2
15:40 69.8 °F 50.9 °F 30.2 in West 4 mph 9 mph 51% 0 in 898 W/m2
15:45 70 °F 51.1 °F 30.2 in NW 4 mph 7 mph 51% 0 in 865 W/m2
15:50 70 °F 51.1 °F 30.2 in WSW 4 mph 11 mph 51% 0 in 837 W/m2
15:55 70.3 °F 51.4 °F 30.1 in West 2 mph 9 mph 51% 0 in 691 W/m2
16:00 70.3 °F 50.9 °F 30.1 in WNW 4 mph 9 mph 50% 0 in 791 W/m2
16:05 70.5 °F 50.4 °F 30.1 in NNW 6 mph 10 mph 49% 0 in 817 W/m2
16:10 70.5 °F 50.9 °F 30.1 in West 2.9 mph 10 mph 50% 0 in 784 W/m2
16:15 70.9 °F 50.7 °F 30.1 in NNE 2 mph 7 mph 49% 0 in 786 W/m2
16:20 70.7 °F 51.1 °F 30.1 in ESE 2.9 mph 8 mph 50% 0 in 659 W/m2
16:25 70.5 °F 50.9 °F 30.1 in WSW 4.9 mph 8 mph 50% 0 in 756 W/m2
16:30 70.5 °F 50.9 °F 30.1 in NNW 4.9 mph 6 mph 50% 0 in 751 W/m2
16:35 70.5 °F 50.4 °F 30.1 in NW 2.9 mph 11 mph 49% 0 in 726 W/m2
16:40 70.7 °F 50 °F 30.1 in West 8.9 mph 9 mph 48% 0 in 770 W/m2
16:45 70.3 °F 50.4 °F 30.1 in NNW 2 mph 4 mph 49% 0 in 649 W/m2
16:50 70.5 °F 50.4 °F 30.1 in NNW 8.1 mph 9 mph 49% 0 in 606 W/m2
16:55 70.5 °F 50.4 °F 30.1 in WNW 8.9 mph 10 mph 49% 0 in 610 W/m2
17:00 70.3 °F 50.9 °F 30.1 in WSW 2.9 mph 7 mph 50% 0 in 497 W/m2
17:05 70.2 °F 50.7 °F 30.1 in WNW 2 mph 4 mph 50% 0 in 485 W/m2
17:10 70.3 °F 50.9 °F 30.1 in West 6 mph 10 mph 50% 0 in 378 W/m2
17:15 70.2 °F 50.2 °F 30.1 in SW 4 mph 8 mph 49% 0 in 497 W/m2
17:20 70.3 °F 50.4 °F 30.1 in WNW 10.1 mph 10 mph 49% 0 in 436 W/m2
17:25 70.3 °F 50.4 °F 30.1 in West 2.9 mph 9 mph 49% 0 in 475 W/m2
17:30 70.3 °F 50.9 °F 30.1 in NW 2 mph 6 mph 50% 0 in 515 W/m2
17:35 70.3 °F 50.4 °F 30.1 in West 4 mph 6 mph 49% 0 in 403 W/m2
17:40 70.3 °F 50.9 °F 30.1 in West 6 mph 9 mph 50% 0 in 504 W/m2
17:45 70.5 °F 50.9 °F 30.1 in West 8.1 mph 10 mph 50% 0 in 429 W/m2
17:50 70.3 °F 50.9 °F 30.1 in WNW 4.9 mph 7 mph 50% 0 in 429 W/m2
17:55 70.3 °F 50.4 °F 30.1 in NNW 2 mph 7 mph 49% 0 in 457 W/m2
18:00 70.5 °F 50.4 °F 30.1 in WNW 2.9 mph 7 mph 49% 0 in 513 W/m2
18:05 70.9 °F 50.7 °F 30.1 in WNW 6 mph 9 mph 49% 0 in 503 W/m2
18:10 70.9 °F 50.7 °F 30.1 in West 4 mph 9 mph 49% 0 in 490 W/m2
18:15 71.1 °F 51.4 °F 30.1 in NW 2 mph 8 mph 50% 0 in 475 W/m2
18:20 71.2 °F 51.1 °F 30.1 in NW 2 mph 4 mph 49% 0 in 330 W/m2
18:25 71.2 °F 51.1 °F 30.1 in NW 6 mph 6 mph 49% 0 in 399 W/m2
18:30 71.2 °F 51.1 °F 30.1 in West 2 mph 9 mph 49% 0 in 346 W/m2
18:35 71.2 °F 51.1 °F 30.1 in WNW 0.9 mph 8 mph 49% 0 in 385 W/m2
18:40 71.1 °F 50.9 °F 30.1 in NNW 4.9 mph 7 mph 49% 0 in 376 W/m2
18:45 71.1 °F 50.4 °F 30.1 in NNW 0.9 mph 5 mph 48% 0 in 325 W/m2
18:50 71.1 °F 51.4 °F 30.1 in West 6.9 mph 8 mph 50% 0 in 88 W/m2
18:55 70.9 °F 51.3 °F 30.1 in West 4 mph 7 mph 50% 0 in 81 W/m2
19:00 70.7 °F 51.1 °F 30.1 in NW 4.9 mph 7 mph 50% 0 in 76 W/m2
19:05 70.7 °F 50.5 °F 30.1 in WNW 2 mph 5 mph 49% 0 in 72 W/m2
19:10 70.9 °F 51.3 °F 30.1 in WNW 2 mph 6 mph 50% 0 in 69 W/m2
19:15 70.7 °F 51.6 °F 30.1 in NNW 2.9 mph 5 mph 51% 0 in 67 W/m2
19:20 70.5 °F 50.9 °F 30.1 in WSW 2.9 mph 4 mph 50% 0 in 63 W/m2
19:25 70.2 °F 51.3 °F 30.1 in NW 4 mph 8 mph 51% 0 in 62 W/m2
19:30 69.6 °F 50.7 °F 30.1 in West 4 mph 7 mph 51% 0 in 60 W/m2
19:35 69.6 °F 51.3 °F 30.1 in WSW 4 mph 6 mph 52% 0 in 58 W/m2
19:40 69.4 °F 51.1 °F 30.1 in NW 4 mph 4 mph 52% 0 in 54 W/m2
19:45 69.4 °F 51.6 °F 30.1 in West 0.9 mph 4 mph 53% 0 in 53 W/m2
19:50 69.4 °F 51.6 °F 30.1 in NW 2 mph 4 mph 53% 0 in 49 W/m2
19:55 69.3 °F 51.4 °F 30.1 in West 2.9 mph 7 mph 53% 0 in 47 W/m2
20:00 68.9 °F 51.1 °F 30.1 in West 4 mph 4 mph 53% 0 in 44 W/m2
20:06 68.5 °F 51.3 °F 30.1 in WSW 0.9 mph 3 mph 54% 0 in 42 W/m2
20:11 68.4 °F 51.1 °F 30.1 in West 2.9 mph 5 mph 54% 0 in 40 W/m2
20:16 68.2 °F 51.4 °F 30.1 in WSW 0.9 mph 6 mph 55% 0 in 37 W/m2
20:21 67.8 °F 51.1 °F 30.1 in West 2.9 mph 4 mph 55% 0 in 35 W/m2
20:26 67.5 °F 51.6 °F 30.1 in West 2.9 mph 4 mph 57% 0 in 33 W/m2
20:31 67.3 °F 51.4 °F 30.1 in West 2.9 mph 6 mph 57% 0 in 32 W/m2
20:36 66.9 °F 51.3 °F 30.1 in West 2.9 mph 4 mph 57% 0 in 30 W/m2
20:41 66.9 °F 51.3 °F 30.1 in WNW 2 mph 5 mph 57% 0 in 26 W/m2
20:46 66.7 °F 51.1 °F 30.1 in West 0.9 mph 4 mph 57% 0 in 25 W/m2
20:51 66.7 °F 51.1 °F 30.1 in NW 2 mph 5 mph 57% 0 in 25 W/m2
20:56 66.6 °F 51.8 °F 30.1 in WNW 2 mph 3 mph 59% 0 in 23 W/m2
21:01 66 °F 51.8 °F 30.1 in West 2 mph 2 mph 60% 0 in 14 W/m2
21:06 65.7 °F 51.8 °F 30.1 in West 0.9 mph 3 mph 61% 0 in 11 W/m2
21:11 65.1 °F 51.3 °F 30.1 in West 2 mph 2 mph 61% 0 in 9 W/m2
21:16 64.8 °F 51.4 °F 30.1 in Calm   2 mph 62% 0 in 5 W/m2
21:21 64.4 °F 51.6 °F 30.1 in Calm   1 mph 63% 0 in 0 W/m2
21:26 64 °F 51.6 °F 30.1 in Calm   2 mph 64% 0 in 0 W/m2
21:31 63.7 °F 51.6 °F 30.1 in Calm   1 mph 65% 0 in 0 W/m2
21:36 63.1 °F 51.6 °F 30.1 in Calm   2 mph 66% 0 in 0 W/m2
21:41 62.8 °F 51.6 °F 30.1 in Calm   2 mph 67% 0 in 0 W/m2
21:46 62.2 °F 51.6 °F 30.1 in Calm     68% 0 in 0 W/m2
21:51 62.1 °F 51.4 °F 30.1 in West 0.9 mph 2 mph 68% 0 in 0 W/m2
21:56 61.5 °F 51.3 °F 30.1 in Calm   1 mph 69% 0 in 0 W/m2
22:01 61.3 °F 51.1 °F 30.1 in West 0.9 mph 2 mph 69% 0 in 0 W/m2
22:06 61.2 °F 50.5 °F 30.1 in Calm   3 mph 68% 0 in 0 W/m2
22:11 61.2 °F 50.9 °F 30.1 in West 0.9 mph 1 mph 69% 0 in 0 W/m2
22:16 61 °F 50.7 °F 30.1 in Calm   3 mph 69% 0 in 0 W/m2
22:21 60.8 °F 50.5 °F 30.1 in West 0.9 mph 2 mph 69% 0 in 0 W/m2
22:26 60.6 °F 50.7 °F 30.1 in West 0.9 mph 2 mph 70% 0 in 0 W/m2
22:31 60.4 °F 50.5 °F 30.1 in West 0.9 mph 2 mph 70% 0 in 0 W/m2
22:36 60.3 °F 50.4 °F 30.1 in West 2 mph 2 mph 70% 0 in 0 W/m2
22:41 60.3 °F 50.4 °F 30.1 in Calm   3 mph 70% 0 in 0 W/m2
22:46 60.1 °F 50.2 °F 30.1 in Calm   1 mph 70% 0 in 0 W/m2
22:51 60.1 °F 50.2 °F 30.1 in WSW 0.9 mph 2 mph 70% 0 in 0 W/m2
22:56 60.1 °F 50.2 °F 30.1 in Calm   1 mph 70% 0 in 0 W/m2
23:01 60.1 °F 50.2 °F 30.1 in WSW 2 mph 2 mph 70% 0 in 0 W/m2
23:06 59.7 °F 50 °F 30.1 in Calm   2 mph 70% 0 in 0 W/m2
23:11 59.7 °F 50 °F 30.1 in SW 0.9 mph 2 mph 70% 0 in 0 W/m2
23:16 59.5 °F 50.2 °F 30.1 in Calm     71% 0 in 0 W/m2
23:21 59.4 °F 50 °F 30.1 in Calm     71% 0 in 0 W/m2
23:26 59.2 °F 49.8 °F 30.1 in Calm     71% 0 in 0 W/m2
23:31 59 °F 50 °F 30.1 in Calm     72% 0 in 0 W/m2
23:36 58.6 °F 50 °F 30.1 in Calm     73% 0 in 0 W/m2
23:41 58.5 °F 49.8 °F 30.1 in Calm     73% 0 in 0 W/m2
23:46 58.3 °F 50 °F 30.1 in Calm     74% 0 in 0 W/m2
23:51 57.9 °F 49.6 °F 30.1 in Calm     74% 0 in 0 W/m2
23:56 57.7 °F 49.5 °F 30.1 in Calm     74% 0 in 0 W/m2
Juneau County Weather
Compliments of Weather Underground - 4 mb